sensor_id;sensor_type;location;lat;lon;timestamp;temperature;humidity
8611;DHT22;4343;53.648;10.098;2022-07-06T00:01:43;16.20;99.90
8611;DHT22;4343;53.648;10.098;2022-07-06T00:04:09;16.20;99.90
8611;DHT22;4343;53.648;10.098;2022-07-06T00:06:35;16.20;99.90
8611;DHT22;4343;53.648;10.098;2022-07-06T00:09:04;16.20;99.90
8611;DHT22;4343;53.648;10.098;2022-07-06T00:11:30;16.20;99.90
8611;DHT22;4343;53.648;10.098;2022-07-06T00:13:56;16.20;99.90
8611;DHT22;4343;53.648;10.098;2022-07-06T00:16:22;16.20;99.90
8611;DHT22;4343;53.648;10.098;2022-07-06T00:18:48;16.20;99.90
8611;DHT22;4343;53.648;10.098;2022-07-06T00:21:13;16.10;99.90
8611;DHT22;4343;53.648;10.098;2022-07-06T00:23:39;16.20;99.90
8611;DHT22;4343;53.648;10.098;2022-07-06T00:26:04;16.20;99.90
8611;DHT22;4343;53.648;10.098;2022-07-06T00:28:31;16.10;99.90
8611;DHT22;4343;53.648;10.098;2022-07-06T00:30:56;16.10;99.90
8611;DHT22;4343;53.648;10.098;2022-07-06T00:33:22;16.20;99.90
8611;DHT22;4343;53.648;10.098;2022-07-06T00:35:48;16.10;99.90
8611;DHT22;4343;53.648;10.098;2022-07-06T00:38:14;16.10;99.90
8611;DHT22;4343;53.648;10.098;2022-07-06T00:40:39;16.10;99.90
8611;DHT22;4343;53.648;10.098;2022-07-06T00:43:05;16.10;99.90
8611;DHT22;4343;53.648;10.098;2022-07-06T00:45:30;16.10;99.90
8611;DHT22;4343;53.648;10.098;2022-07-06T00:47:56;16.10;99.90
8611;DHT22;4343;53.648;10.098;2022-07-06T00:50:22;16.10;99.90
8611;DHT22;4343;53.648;10.098;2022-07-06T00:52:56;16.10;99.90
8611;DHT22;4343;53.648;10.098;2022-07-06T00:55:27;16.10;99.90
8611;DHT22;4343;53.648;10.098;2022-07-06T00:57:54;16.10;99.90
8611;DHT22;4343;53.648;10.098;2022-07-06T01:00:23;16.00;99.90
8611;DHT22;4343;53.648;10.098;2022-07-06T01:02:49;16.00;99.90
8611;DHT22;4343;53.648;10.098;2022-07-06T01:05:16;16.00;99.90
8611;DHT22;4343;53.648;10.098;2022-07-06T01:07:44;16.00;99.90
8611;DHT22;4343;53.648;10.098;2022-07-06T01:10:12;16.00;99.90
8611;DHT22;4343;53.648;10.098;2022-07-06T01:12:40;16.00;99.90
8611;DHT22;4343;53.648;10.098;2022-07-06T01:15:08;16.00;99.90
8611;DHT22;4343;53.648;10.098;2022-07-06T01:17:34;16.00;99.90
8611;DHT22;4343;53.648;10.098;2022-07-06T01:20:26;16.00;99.90
8611;DHT22;4343;53.648;10.098;2022-07-06T01:22:54;16.00;99.90
8611;DHT22;4343;53.648;10.098;2022-07-06T01:25:21;15.90;99.90
8611;DHT22;4343;53.648;10.098;2022-07-06T01:27:47;15.90;99.90
8611;DHT22;4343;53.648;10.098;2022-07-06T01:30:16;15.90;99.90
8611;DHT22;4343;53.648;10.098;2022-07-06T01:32:42;15.90;99.90
8611;DHT22;4343;53.648;10.098;2022-07-06T01:35:10;15.90;99.90
8611;DHT22;4343;53.648;10.098;2022-07-06T01:37:36;15.90;99.90
8611;DHT22;4343;53.648;10.098;2022-07-06T01:40:07;15.90;99.90
8611;DHT22;4343;53.648;10.098;2022-07-06T01:42:34;15.90;99.90
8611;DHT22;4343;53.648;10.098;2022-07-06T01:45:00;15.90;99.90
8611;DHT22;4343;53.648;10.098;2022-07-06T01:47:25;15.80;99.90
8611;DHT22;4343;53.648;10.098;2022-07-06T01:49:51;15.80;99.90
8611;DHT22;4343;53.648;10.098;2022-07-06T01:52:17;15.80;99.90
8611;DHT22;4343;53.648;10.098;2022-07-06T01:54:43;15.80;99.90
8611;DHT22;4343;53.648;10.098;2022-07-06T01:57:08;15.80;99.90
8611;DHT22;4343;53.648;10.098;2022-07-06T01:59:34;15.80;99.90
8611;DHT22;4343;53.648;10.098;2022-07-06T02:02:00;15.80;99.90
8611;DHT22;4343;53.648;10.098;2022-07-06T02:04:25;15.70;99.90
8611;DHT22;4343;53.648;10.098;2022-07-06T02:06:51;15.80;99.90
8611;DHT22;4343;53.648;10.098;2022-07-06T02:09:16;15.80;99.90
8611;DHT22;4343;53.648;10.098;2022-07-06T02:11:42;15.80;99.90
8611;DHT22;4343;53.648;10.098;2022-07-06T02:14:08;15.80;99.90
8611;DHT22;4343;53.648;10.098;2022-07-06T02:16:34;15.80;99.90
8611;DHT22;4343;53.648;10.098;2022-07-06T02:19:00;15.80;99.90
8611;DHT22;4343;53.648;10.098;2022-07-06T02:21:26;15.70;99.90
8611;DHT22;4343;53.648;10.098;2022-07-06T02:23:52;15.70;99.90
8611;DHT22;4343;53.648;10.098;2022-07-06T02:26:17;15.70;99.90
8611;DHT22;4343;53.648;10.098;2022-07-06T02:28:43;15.60;99.90
8611;DHT22;4343;53.648;10.098;2022-07-06T02:31:09;15.70;99.90
8611;DHT22;4343;53.648;10.098;2022-07-06T02:33:38;15.60;99.90
8611;DHT22;4343;53.648;10.098;2022-07-06T02:36:04;15.60;99.90
8611;DHT22;4343;53.648;10.098;2022-07-06T02:38:29;15.60;99.90
8611;DHT22;4343;53.648;10.098;2022-07-06T02:40:55;15.50;99.90
8611;DHT22;4343;53.648;10.098;2022-07-06T02:43:20;15.60;99.90
8611;DHT22;4343;53.648;10.098;2022-07-06T02:45:46;15.60;99.90
8611;DHT22;4343;53.648;10.098;2022-07-06T02:48:11;15.60;99.90
8611;DHT22;4343;53.648;10.098;2022-07-06T02:50:37;15.60;99.90
8611;DHT22;4343;53.648;10.098;2022-07-06T02:53:02;15.50;99.90
8611;DHT22;4343;53.648;10.098;2022-07-06T02:55:28;15.50;99.90
8611;DHT22;4343;53.648;10.098;2022-07-06T02:57:54;15.40;99.90
8611;DHT22;4343;53.648;10.098;2022-07-06T03:00:19;15.40;99.90
8611;DHT22;4343;53.648;10.098;2022-07-06T03:02:45;15.30;99.90
8611;DHT22;4343;53.648;10.098;2022-07-06T03:05:11;15.30;99.90
8611;DHT22;4343;53.648;10.098;2022-07-06T03:07:36;15.20;99.90
8611;DHT22;4343;53.648;10.098;2022-07-06T03:10:02;15.30;99.90
8611;DHT22;4343;53.648;10.098;2022-07-06T03:12:28;15.20;99.90
8611;DHT22;4343;53.648;10.098;2022-07-06T03:14:53;15.20;99.90
8611;DHT22;4343;53.648;10.098;2022-07-06T03:17:19;15.20;99.90
8611;DHT22;4343;53.648;10.098;2022-07-06T03:19:44;15.20;99.90
8611;DHT22;4343;53.648;10.098;2022-07-06T03:22:10;15.10;99.90
8611;DHT22;4343;53.648;10.098;2022-07-06T03:24:35;15.10;99.90
8611;DHT22;4343;53.648;10.098;2022-07-06T03:27:01;15.10;99.90
8611;DHT22;4343;53.648;10.098;2022-07-06T03:29:26;15.10;99.90
8611;DHT22;4343;53.648;10.098;2022-07-06T03:31:52;15.10;99.90
8611;DHT22;4343;53.648;10.098;2022-07-06T03:34:17;15.10;99.90
8611;DHT22;4343;53.648;10.098;2022-07-06T03:36:43;15.10;99.90
8611;DHT22;4343;53.648;10.098;2022-07-06T03:39:08;15.10;99.90
8611;DHT22;4343;53.648;10.098;2022-07-06T03:41:34;15.10;99.90
8611;DHT22;4343;53.648;10.098;2022-07-06T03:43:59;15.10;99.90
8611;DHT22;4343;53.648;10.098;2022-07-06T03:46:25;15.10;99.90
8611;DHT22;4343;53.648;10.098;2022-07-06T03:48:51;15.10;99.90
8611;DHT22;4343;53.648;10.098;2022-07-06T03:51:16;15.10;99.90
8611;DHT22;4343;53.648;10.098;2022-07-06T03:53:42;15.10;99.90
8611;DHT22;4343;53.648;10.098;2022-07-06T03:56:07;15.10;99.90
8611;DHT22;4343;53.648;10.098;2022-07-06T03:58:52;15.10;99.90
8611;DHT22;4343;53.648;10.098;2022-07-06T04:01:17;15.20;99.90
8611;DHT22;4343;53.648;10.098;2022-07-06T04:03:43;15.10;99.90
8611;DHT22;4343;53.648;10.098;2022-07-06T04:06:10;15.10;99.90
8611;DHT22;4343;53.648;10.098;2022-07-06T04:08:35;15.20;99.90
8611;DHT22;4343;53.648;10.098;2022-07-06T04:11:01;15.20;99.90
8611;DHT22;4343;53.648;10.098;2022-07-06T04:13:26;15.20;99.90
8611;DHT22;4343;53.648;10.098;2022-07-06T04:15:52;15.20;99.90
8611;DHT22;4343;53.648;10.098;2022-07-06T04:18:17;15.20;99.90
8611;DHT22;4343;53.648;10.098;2022-07-06T04:20:43;15.20;99.90
8611;DHT22;4343;53.648;10.098;2022-07-06T04:23:08;15.20;99.90
8611;DHT22;4343;53.648;10.098;2022-07-06T04:25:34;15.20;99.90
8611;DHT22;4343;53.648;10.098;2022-07-06T04:28:00;15.10;99.90
8611;DHT22;4343;53.648;10.098;2022-07-06T04:30:25;15.10;99.90
8611;DHT22;4343;53.648;10.098;2022-07-06T04:32:51;15.20;99.90
8611;DHT22;4343;53.648;10.098;2022-07-06T04:35:17;15.20;99.90
8611;DHT22;4343;53.648;10.098;2022-07-06T04:37:42;15.10;99.90
8611;DHT22;4343;53.648;10.098;2022-07-06T04:40:08;15.10;99.90
8611;DHT22;4343;53.648;10.098;2022-07-06T04:42:34;15.20;99.90
8611;DHT22;4343;53.648;10.098;2022-07-06T04:45:00;15.20;99.90
8611;DHT22;4343;53.648;10.098;2022-07-06T04:47:25;15.20;99.90
8611;DHT22;4343;53.648;10.098;2022-07-06T04:49:51;15.30;99.90
8611;DHT22;4343;53.648;10.098;2022-07-06T04:52:16;15.30;99.90
8611;DHT22;4343;53.648;10.098;2022-07-06T04:54:42;15.30;99.90
8611;DHT22;4343;53.648;10.098;2022-07-06T04:57:07;15.30;99.90
8611;DHT22;4343;53.648;10.098;2022-07-06T04:59:33;15.30;99.90
8611;DHT22;4343;53.648;10.098;2022-07-06T05:01:58;15.40;99.90
8611;DHT22;4343;53.648;10.098;2022-07-06T05:04:24;15.40;99.90
8611;DHT22;4343;53.648;10.098;2022-07-06T05:06:50;15.40;99.90
8611;DHT22;4343;53.648;10.098;2022-07-06T05:09:15;15.40;99.90
8611;DHT22;4343;53.648;10.098;2022-07-06T05:11:41;15.40;99.90
8611;DHT22;4343;53.648;10.098;2022-07-06T05:14:07;15.40;99.90
8611;DHT22;4343;53.648;10.098;2022-07-06T05:16:32;15.40;99.90
8611;DHT22;4343;53.648;10.098;2022-07-06T05:18:58;15.40;99.90
8611;DHT22;4343;53.648;10.098;2022-07-06T05:21:24;15.40;99.90
8611;DHT22;4343;53.648;10.098;2022-07-06T05:23:50;15.40;99.90
8611;DHT22;4343;53.648;10.098;2022-07-06T05:26:16;15.40;99.90
8611;DHT22;4343;53.648;10.098;2022-07-06T05:28:41;15.40;99.90
8611;DHT22;4343;53.648;10.098;2022-07-06T05:31:07;15.40;99.90
8611;DHT22;4343;53.648;10.098;2022-07-06T05:33:33;15.40;99.90
8611;DHT22;4343;53.648;10.098;2022-07-06T05:35:58;15.40;99.90
8611;DHT22;4343;53.648;10.098;2022-07-06T05:38:24;15.40;99.90
8611;DHT22;4343;53.648;10.098;2022-07-06T05:40:50;15.40;99.90
8611;DHT22;4343;53.648;10.098;2022-07-06T05:43:16;15.40;99.90
8611;DHT22;4343;53.648;10.098;2022-07-06T05:45:41;15.40;99.90
8611;DHT22;4343;53.648;10.098;2022-07-06T05:48:07;15.40;99.90
8611;DHT22;4343;53.648;10.098;2022-07-06T05:50:51;15.50;99.90
8611;DHT22;4343;53.648;10.098;2022-07-06T05:53:16;15.50;99.90
8611;DHT22;4343;53.648;10.098;2022-07-06T05:55:42;15.60;99.90
8611;DHT22;4343;53.648;10.098;2022-07-06T05:58:08;15.60;99.90
8611;DHT22;4343;53.648;10.098;2022-07-06T06:00:33;15.60;99.90
8611;DHT22;4343;53.648;10.098;2022-07-06T06:02:59;15.70;99.90
8611;DHT22;4343;53.648;10.098;2022-07-06T06:05:25;15.70;99.90
8611;DHT22;4343;53.648;10.098;2022-07-06T06:07:50;15.70;99.90
8611;DHT22;4343;53.648;10.098;2022-07-06T06:10:19;15.70;99.90
8611;DHT22;4343;53.648;10.098;2022-07-06T06:12:47;15.80;99.90
8611;DHT22;4343;53.648;10.098;2022-07-06T06:15:13;15.80;99.90
8611;DHT22;4343;53.648;10.098;2022-07-06T06:17:39;15.80;99.90
8611;DHT22;4343;53.648;10.098;2022-07-06T06:20:06;15.80;99.90
8611;DHT22;4343;53.648;10.098;2022-07-06T06:22:53;15.80;99.90
8611;DHT22;4343;53.648;10.098;2022-07-06T06:25:27;15.90;99.90
8611;DHT22;4343;53.648;10.098;2022-07-06T06:27:53;15.90;99.90
8611;DHT22;4343;53.648;10.098;2022-07-06T06:30:19;15.90;99.90
8611;DHT22;4343;53.648;10.098;2022-07-06T06:32:44;15.90;99.90
8611;DHT22;4343;53.648;10.098;2022-07-06T06:35:10;16.00;99.90
8611;DHT22;4343;53.648;10.098;2022-07-06T06:37:36;16.00;99.90
8611;DHT22;4343;53.648;10.098;2022-07-06T06:40:02;16.00;99.90
8611;DHT22;4343;53.648;10.098;2022-07-06T06:42:28;16.10;99.90
8611;DHT22;4343;53.648;10.098;2022-07-06T06:44:53;16.10;99.90
8611;DHT22;4343;53.648;10.098;2022-07-06T06:47:19;16.20;99.90
8611;DHT22;4343;53.648;10.098;2022-07-06T06:49:45;16.20;99.90
8611;DHT22;4343;53.648;10.098;2022-07-06T06:52:11;16.20;99.90
8611;DHT22;4343;53.648;10.098;2022-07-06T06:54:36;16.20;99.90
8611;DHT22;4343;53.648;10.098;2022-07-06T06:57:02;16.20;99.90
8611;DHT22;4343;53.648;10.098;2022-07-06T06:59:28;16.30;99.90
8611;DHT22;4343;53.648;10.098;2022-07-06T07:01:53;16.30;99.90
8611;DHT22;4343;53.648;10.098;2022-07-06T07:04:19;16.30;99.90
8611;DHT22;4343;53.648;10.098;2022-07-06T07:06:44;16.30;99.90
8611;DHT22;4343;53.648;10.098;2022-07-06T07:09:10;16.40;99.90
8611;DHT22;4343;53.648;10.098;2022-07-06T07:11:35;16.50;99.90
8611;DHT22;4343;53.648;10.098;2022-07-06T07:14:01;16.60;99.90
8611;DHT22;4343;53.648;10.098;2022-07-06T07:16:27;16.60;99.90
8611;DHT22;4343;53.648;10.098;2022-07-06T07:18:52;16.70;99.90
8611;DHT22;4343;53.648;10.098;2022-07-06T07:21:18;16.80;99.90
8611;DHT22;4343;53.648;10.098;2022-07-06T07:23:44;16.80;99.90
8611;DHT22;4343;53.648;10.098;2022-07-06T07:26:09;16.90;99.90
8611;DHT22;4343;53.648;10.098;2022-07-06T07:28:35;16.90;99.90
8611;DHT22;4343;53.648;10.098;2022-07-06T07:31:01;17.00;99.90
8611;DHT22;4343;53.648;10.098;2022-07-06T07:33:26;17.00;99.90
8611;DHT22;4343;53.648;10.098;2022-07-06T07:35:52;17.10;99.90
8611;DHT22;4343;53.648;10.098;2022-07-06T07:38:17;17.10;99.90
8611;DHT22;4343;53.648;10.098;2022-07-06T07:40:43;17.10;99.90
8611;DHT22;4343;53.648;10.098;2022-07-06T07:43:08;17.10;99.90
8611;DHT22;4343;53.648;10.098;2022-07-06T07:45:34;17.10;99.90
8611;DHT22;4343;53.648;10.098;2022-07-06T07:47:59;17.10;99.90
8611;DHT22;4343;53.648;10.098;2022-07-06T07:50:25;17.10;99.90
8611;DHT22;4343;53.648;10.098;2022-07-06T07:52:52;17.10;99.90
8611;DHT22;4343;53.648;10.098;2022-07-06T07:55:17;17.10;99.90
8611;DHT22;4343;53.648;10.098;2022-07-06T07:57:43;17.10;99.90
8611;DHT22;4343;53.648;10.098;2022-07-06T08:00:09;17.10;99.90
8611;DHT22;4343;53.648;10.098;2022-07-06T08:02:34;17.10;99.90
8611;DHT22;4343;53.648;10.098;2022-07-06T08:05:00;17.10;99.90
8611;DHT22;4343;53.648;10.098;2022-07-06T08:07:25;17.20;99.90
8611;DHT22;4343;53.648;10.098;2022-07-06T08:09:51;17.20;99.90
8611;DHT22;4343;53.648;10.098;2022-07-06T08:12:16;17.20;99.90
8611;DHT22;4343;53.648;10.098;2022-07-06T08:14:42;17.30;99.90
8611;DHT22;4343;53.648;10.098;2022-07-06T08:17:07;17.40;99.90
8611;DHT22;4343;53.648;10.098;2022-07-06T08:19:33;17.50;99.90
8611;DHT22;4343;53.648;10.098;2022-07-06T08:21:58;17.50;99.90
8611;DHT22;4343;53.648;10.098;2022-07-06T08:24:24;17.60;99.90
8611;DHT22;4343;53.648;10.098;2022-07-06T08:26:49;17.70;99.90
8611;DHT22;4343;53.648;10.098;2022-07-06T08:29:15;17.80;99.90
8611;DHT22;4343;53.648;10.098;2022-07-06T08:31:40;17.90;99.90
8611;DHT22;4343;53.648;10.098;2022-07-06T08:34:06;17.90;99.90
8611;DHT22;4343;53.648;10.098;2022-07-06T08:36:31;18.00;99.90
8611;DHT22;4343;53.648;10.098;2022-07-06T08:38:57;18.10;99.90
8611;DHT22;4343;53.648;10.098;2022-07-06T08:41:25;18.20;99.90
8611;DHT22;4343;53.648;10.098;2022-07-06T08:43:52;18.20;99.90
8611;DHT22;4343;53.648;10.098;2022-07-06T08:46:19;18.30;99.90
8611;DHT22;4343;53.648;10.098;2022-07-06T08:48:45;18.20;99.90
8611;DHT22;4343;53.648;10.098;2022-07-06T08:51:12;18.30;99.90
8611;DHT22;4343;53.648;10.098;2022-07-06T08:53:40;18.20;99.90
8611;DHT22;4343;53.648;10.098;2022-07-06T08:56:07;18.20;99.90
8611;DHT22;4343;53.648;10.098;2022-07-06T08:58:32;18.20;99.90
8611;DHT22;4343;53.648;10.098;2022-07-06T09:00:59;18.20;99.90
8611;DHT22;4343;53.648;10.098;2022-07-06T09:03:24;18.10;99.90
8611;DHT22;4343;53.648;10.098;2022-07-06T09:05:52;18.00;99.90
8611;DHT22;4343;53.648;10.098;2022-07-06T09:08:18;17.90;99.90
8611;DHT22;4343;53.648;10.098;2022-07-06T09:10:44;17.80;99.90
8611;DHT22;4343;53.648;10.098;2022-07-06T09:13:10;17.70;99.90
8611;DHT22;4343;53.648;10.098;2022-07-06T09:15:36;17.60;99.90
8611;DHT22;4343;53.648;10.098;2022-07-06T09:18:05;17.50;99.90
8611;DHT22;4343;53.648;10.098;2022-07-06T09:20:31;17.50;99.90
8611;DHT22;4343;53.648;10.098;2022-07-06T09:23:03;17.40;99.90
8611;DHT22;4343;53.648;10.098;2022-07-06T09:25:29;17.40;99.90
8611;DHT22;4343;53.648;10.098;2022-07-06T09:27:56;17.40;99.90
8611;DHT22;4343;53.648;10.098;2022-07-06T09:30:23;17.50;99.90
8611;DHT22;4343;53.648;10.098;2022-07-06T09:32:51;17.50;99.90
8611;DHT22;4343;53.648;10.098;2022-07-06T09:35:25;17.50;99.90
8611;DHT22;4343;53.648;10.098;2022-07-06T09:38:10;17.60;99.90
8611;DHT22;4343;53.648;10.098;2022-07-06T09:40:40;17.60;99.90
8611;DHT22;4343;53.648;10.098;2022-07-06T09:45:42;17.90;99.90
8611;DHT22;4343;53.648;10.098;2022-07-06T09:48:13;18.00;99.90
8611;DHT22;4343;53.648;10.098;2022-07-06T09:50:52;18.10;99.90
8611;DHT22;4343;53.648;10.098;2022-07-06T09:53:20;18.20;99.90
8611;DHT22;4343;53.648;10.098;2022-07-06T09:55:47;18.50;99.90
8611;DHT22;4343;53.648;10.098;2022-07-06T09:58:14;18.60;99.90
8611;DHT22;4343;53.648;10.098;2022-07-06T10:00:43;18.80;99.90
8611;DHT22;4343;53.648;10.098;2022-07-06T10:03:11;18.90;99.90
8611;DHT22;4343;53.648;10.098;2022-07-06T10:05:38;19.00;99.90
8611;DHT22;4343;53.648;10.098;2022-07-06T10:08:05;19.10;99.90
8611;DHT22;4343;53.648;10.098;2022-07-06T10:10:32;19.10;99.90
8611;DHT22;4343;53.648;10.098;2022-07-06T10:12:59;19.10;99.90
8611;DHT22;4343;53.648;10.098;2022-07-06T10:15:26;19.10;99.90
8611;DHT22;4343;53.648;10.098;2022-07-06T10:17:52;19.10;99.90
8611;DHT22;4343;53.648;10.098;2022-07-06T10:20:19;18.90;99.90
8611;DHT22;4343;53.648;10.098;2022-07-06T10:22:49;18.80;99.90
8611;DHT22;4343;53.648;10.098;2022-07-06T10:25:18;18.60;99.90
8611;DHT22;4343;53.648;10.098;2022-07-06T10:27:47;18.50;99.90
8611;DHT22;4343;53.648;10.098;2022-07-06T10:30:14;18.50;99.90
8611;DHT22;4343;53.648;10.098;2022-07-06T10:32:42;18.40;99.90
8611;DHT22;4343;53.648;10.098;2022-07-06T10:35:09;18.30;99.90
8611;DHT22;4343;53.648;10.098;2022-07-06T10:37:35;18.20;99.90
8611;DHT22;4343;53.648;10.098;2022-07-06T10:40:01;18.10;99.90
8611;DHT22;4343;53.648;10.098;2022-07-06T10:43:03;18.10;99.90
8611;DHT22;4343;53.648;10.098;2022-07-06T10:50:39;18.00;99.90
8611;DHT22;4343;53.648;10.098;2022-07-06T10:53:13;17.90;99.90
8611;DHT22;4343;53.648;10.098;2022-07-06T10:55:41;17.90;99.90
8611;DHT22;4343;53.648;10.098;2022-07-06T10:58:09;17.90;99.90
8611;DHT22;4343;53.648;10.098;2022-07-06T11:01:02;17.80;99.90
8611;DHT22;4343;53.648;10.098;2022-07-06T11:06:01;17.80;99.90
8611;DHT22;4343;53.648;10.098;2022-07-06T11:08:51;17.80;99.90
8611;DHT22;4343;53.648;10.098;2022-07-06T11:16:20;18.00;99.90
8611;DHT22;4343;53.648;10.098;2022-07-06T11:18:48;18.10;99.90
8611;DHT22;4343;53.648;10.098;2022-07-06T11:21:19;18.20;99.90
8611;DHT22;4343;53.648;10.098;2022-07-06T11:23:47;18.20;99.90
8611;DHT22;4343;53.648;10.098;2022-07-06T11:26:14;18.30;99.90
8611;DHT22;4343;53.648;10.098;2022-07-06T11:28:40;18.50;99.90
8611;DHT22;4343;53.648;10.098;2022-07-06T11:31:05;18.80;99.90
8611;DHT22;4343;53.648;10.098;2022-07-06T11:33:32;19.00;99.90
8611;DHT22;4343;53.648;10.098;2022-07-06T11:38:37;19.40;99.90
8611;DHT22;4343;53.648;10.098;2022-07-06T11:41:02;19.60;99.90
8611;DHT22;4343;53.648;10.098;2022-07-06T11:43:28;19.70;99.90
8611;DHT22;4343;53.648;10.098;2022-07-06T11:45:53;19.80;99.90
8611;DHT22;4343;53.648;10.098;2022-07-06T11:48:19;19.90;99.90
8611;DHT22;4343;53.648;10.098;2022-07-06T11:51:00;19.90;99.90
8611;DHT22;4343;53.648;10.098;2022-07-06T11:53:25;19.90;99.90
8611;DHT22;4343;53.648;10.098;2022-07-06T11:55:52;19.80;99.90
8611;DHT22;4343;53.648;10.098;2022-07-06T11:58:22;19.80;99.90
8611;DHT22;4343;53.648;10.098;2022-07-06T12:01:10;19.80;99.90
8611;DHT22;4343;53.648;10.098;2022-07-06T12:03:36;19.80;99.90
8611;DHT22;4343;53.648;10.098;2022-07-06T12:06:03;19.80;99.90
8611;DHT22;4343;53.648;10.098;2022-07-06T12:08:30;19.80;99.90
8611;DHT22;4343;53.648;10.098;2022-07-06T12:10:55;19.80;99.90
8611;DHT22;4343;53.648;10.098;2022-07-06T12:13:23;19.90;99.90
8611;DHT22;4343;53.648;10.098;2022-07-06T12:15:49;19.90;99.90
8611;DHT22;4343;53.648;10.098;2022-07-06T12:18:15;19.90;99.90
8611;DHT22;4343;53.648;10.098;2022-07-06T12:20:41;19.80;99.90
8611;DHT22;4343;53.648;10.098;2022-07-06T12:23:07;19.80;99.90
8611;DHT22;4343;53.648;10.098;2022-07-06T12:25:37;19.80;99.90
8611;DHT22;4343;53.648;10.098;2022-07-06T12:28:03;19.80;99.90
8611;DHT22;4343;53.648;10.098;2022-07-06T12:30:29;19.90;99.90
8611;DHT22;4343;53.648;10.098;2022-07-06T12:33:14;20.00;99.90
8611;DHT22;4343;53.648;10.098;2022-07-06T12:35:41;20.00;99.90
8611;DHT22;4343;53.648;10.098;2022-07-06T12:38:07;20.10;99.90
8611;DHT22;4343;53.648;10.098;2022-07-06T12:40:34;20.10;99.90
8611;DHT22;4343;53.648;10.098;2022-07-06T12:43:00;20.20;99.90
8611;DHT22;4343;53.648;10.098;2022-07-06T12:45:30;20.30;99.90
8611;DHT22;4343;53.648;10.098;2022-07-06T12:48:03;20.30;99.90
8611;DHT22;4343;53.648;10.098;2022-07-06T12:50:31;20.30;99.90
8611;DHT22;4343;53.648;10.098;2022-07-06T12:53:00;20.30;99.90
8611;DHT22;4343;53.648;10.098;2022-07-06T12:55:27;20.40;99.90
8611;DHT22;4343;53.648;10.098;2022-07-06T12:57:54;20.60;99.90
8611;DHT22;4343;53.648;10.098;2022-07-06T13:00:20;20.70;99.90
8611;DHT22;4343;53.648;10.098;2022-07-06T13:02:52;20.80;99.50
8611;DHT22;4343;53.648;10.098;2022-07-06T13:05:26;20.90;99.20
8611;DHT22;4343;53.648;10.098;2022-07-06T13:07:56;20.90;99.20
8611;DHT22;4343;53.648;10.098;2022-07-06T13:10:23;20.80;99.70
8611;DHT22;4343;53.648;10.098;2022-07-06T13:12:49;20.80;99.70
8611;DHT22;4343;53.648;10.098;2022-07-06T13:15:15;20.80;99.90
8611;DHT22;4343;53.648;10.098;2022-07-06T13:17:42;20.80;99.70
8611;DHT22;4343;53.648;10.098;2022-07-06T13:20:09;20.80;99.80
8611;DHT22;4343;53.648;10.098;2022-07-06T13:22:35;20.80;99.90
8611;DHT22;4343;53.648;10.098;2022-07-06T13:25:01;20.70;99.90
8611;DHT22;4343;53.648;10.098;2022-07-06T13:27:27;20.70;99.90
8611;DHT22;4343;53.648;10.098;2022-07-06T13:29:52;20.60;99.90
8611;DHT22;4343;53.648;10.098;2022-07-06T13:32:18;20.60;99.90
8611;DHT22;4343;53.648;10.098;2022-07-06T13:34:43;20.50;99.90
8611;DHT22;4343;53.648;10.098;2022-07-06T13:37:09;20.60;99.90
8611;DHT22;4343;53.648;10.098;2022-07-06T13:39:36;20.60;99.90
8611;DHT22;4343;53.648;10.098;2022-07-06T13:42:01;20.60;99.90
8611;DHT22;4343;53.648;10.098;2022-07-06T13:44:27;20.70;99.90
8611;DHT22;4343;53.648;10.098;2022-07-06T13:46:53;20.80;99.90
8611;DHT22;4343;53.648;10.098;2022-07-06T13:49:18;21.00;99.90
8611;DHT22;4343;53.648;10.098;2022-07-06T13:51:44;21.10;99.90
8611;DHT22;4343;53.648;10.098;2022-07-06T13:54:09;21.30;99.90
8611;DHT22;4343;53.648;10.098;2022-07-06T13:56:37;21.40;99.90
8611;DHT22;4343;53.648;10.098;2022-07-06T13:59:03;21.50;99.40
8611;DHT22;4343;53.648;10.098;2022-07-06T14:01:28;21.60;99.10
8611;DHT22;4343;53.648;10.098;2022-07-06T14:03:54;21.60;98.60
8611;DHT22;4343;53.648;10.098;2022-07-06T14:06:19;21.70;98.60
8611;DHT22;4343;53.648;10.098;2022-07-06T14:08:46;21.80;98.10
8611;DHT22;4343;53.648;10.098;2022-07-06T14:11:11;21.90;97.80
8611;DHT22;4343;53.648;10.098;2022-07-06T14:13:37;22.10;98.00
8611;DHT22;4343;53.648;10.098;2022-07-06T14:16:04;22.20;98.00
8611;DHT22;4343;53.648;10.098;2022-07-06T14:18:30;22.30;97.60
8611;DHT22;4343;53.648;10.098;2022-07-06T14:20:56;22.50;97.70
8611;DHT22;4343;53.648;10.098;2022-07-06T14:23:22;22.60;97.50
8611;DHT22;4343;53.648;10.098;2022-07-06T14:25:49;22.70;97.40
8611;DHT22;4343;53.648;10.098;2022-07-06T14:28:15;22.80;97.00
8611;DHT22;4343;53.648;10.098;2022-07-06T14:30:42;22.80;96.60
8611;DHT22;4343;53.648;10.098;2022-07-06T14:33:10;22.80;96.40
8611;DHT22;4343;53.648;10.098;2022-07-06T14:35:37;22.80;96.40
8611;DHT22;4343;53.648;10.098;2022-07-06T14:38:03;22.80;96.10
8611;DHT22;4343;53.648;10.098;2022-07-06T14:40:30;22.80;96.10
8611;DHT22;4343;53.648;10.098;2022-07-06T14:42:57;22.70;96.20
8611;DHT22;4343;53.648;10.098;2022-07-06T14:45:22;22.70;96.00
8611;DHT22;4343;53.648;10.098;2022-07-06T14:47:48;22.70;95.30
8611;DHT22;4343;53.648;10.098;2022-07-06T14:50:13;22.60;95.20
8611;DHT22;4343;53.648;10.098;2022-07-06T14:52:39;22.50;95.50
8611;DHT22;4343;53.648;10.098;2022-07-06T14:55:05;22.40;95.40
8611;DHT22;4343;53.648;10.098;2022-07-06T14:57:30;22.30;95.80
8611;DHT22;4343;53.648;10.098;2022-07-06T14:59:56;22.10;96.10
8611;DHT22;4343;53.648;10.098;2022-07-06T15:02:21;22.00;96.50
8611;DHT22;4343;53.648;10.098;2022-07-06T15:04:47;21.90;96.70
8611;DHT22;4343;53.648;10.098;2022-07-06T15:07:12;21.80;96.90
8611;DHT22;4343;53.648;10.098;2022-07-06T15:09:38;21.80;97.10
8611;DHT22;4343;53.648;10.098;2022-07-06T15:12:04;21.60;97.30
8611;DHT22;4343;53.648;10.098;2022-07-06T15:14:29;21.50;97.40
8611;DHT22;4343;53.648;10.098;2022-07-06T15:16:55;21.40;97.50
8611;DHT22;4343;53.648;10.098;2022-07-06T15:19:21;21.40;97.40
8611;DHT22;4343;53.648;10.098;2022-07-06T15:21:46;21.30;97.50
8611;DHT22;4343;53.648;10.098;2022-07-06T15:24:12;21.30;97.50
8611;DHT22;4343;53.648;10.098;2022-07-06T15:26:37;21.20;97.60
8611;DHT22;4343;53.648;10.098;2022-07-06T15:29:03;21.10;97.50
8611;DHT22;4343;53.648;10.098;2022-07-06T15:31:29;21.10;97.40
8611;DHT22;4343;53.648;10.098;2022-07-06T15:33:57;21.00;97.40
8611;DHT22;4343;53.648;10.098;2022-07-06T15:36:22;20.90;97.10
8611;DHT22;4343;53.648;10.098;2022-07-06T15:38:48;20.90;97.30
8611;DHT22;4343;53.648;10.098;2022-07-06T15:41:14;20.80;97.50
8611;DHT22;4343;53.648;10.098;2022-07-06T15:43:39;20.80;97.80
8611;DHT22;4343;53.648;10.098;2022-07-06T15:46:05;20.70;97.90
8611;DHT22;4343;53.648;10.098;2022-07-06T15:48:31;20.70;97.90
8611;DHT22;4343;53.648;10.098;2022-07-06T15:51:00;20.70;98.00
8611;DHT22;4343;53.648;10.098;2022-07-06T15:53:26;20.60;98.10
8611;DHT22;4343;53.648;10.098;2022-07-06T15:55:52;20.50;98.20
8611;DHT22;4343;53.648;10.098;2022-07-06T15:58:17;20.40;98.70
8611;DHT22;4343;53.648;10.098;2022-07-06T16:00:44;20.40;98.70